createdAt,value
2022-12-08T00:01:24.877Z,26.50
2022-12-08T00:03:53.289Z,27.40
2022-12-08T00:06:48.154Z,28.00
2022-12-08T00:09:38.994Z,24.60
2022-12-08T00:12:12.768Z,26.20
2022-12-08T00:14:46.126Z,30.70
2022-12-08T00:17:15.474Z,26.90
2022-12-08T00:19:42.902Z,27.30
2022-12-08T00:22:11.454Z,27.30
2022-12-08T00:24:40.110Z,30.10
2022-12-08T00:27:09.772Z,28.20
2022-12-08T00:29:36.643Z,26.60
2022-12-08T00:32:04.084Z,34.40
2022-12-08T00:34:31.921Z,30.60
2022-12-08T00:36:59.145Z,32.30
2022-12-08T00:39:25.915Z,34.30
2022-12-08T00:42:11.074Z,34.70
2022-12-08T00:44:42.215Z,33.00
2022-12-08T00:47:09.751Z,29.40
2022-12-08T00:49:36.433Z,35.40
2022-12-08T00:52:03.221Z,32.10
2022-12-08T00:54:30.242Z,34.40
2022-12-08T00:56:56.930Z,35.20
2022-12-08T00:59:23.572Z,32.70
2022-12-08T01:01:50.498Z,41.90
2022-12-08T01:04:19.093Z,38.90
2022-12-08T01:06:47.314Z,38.60
2022-12-08T01:09:15.757Z,39.60
2022-12-08T01:11:43.851Z,41.90
2022-12-08T01:14:11.691Z,44.90
2022-12-08T01:16:40.701Z,42.00
2022-12-08T01:19:09.977Z,38.20
2022-12-08T01:21:36.854Z,45.90
2022-12-08T01:24:04.015Z,34.80
2022-12-08T01:26:30.665Z,37.70
2022-12-08T01:28:57.374Z,35.10
2022-12-08T01:31:24.145Z,35.30
2022-12-08T01:33:50.888Z,36.80
2022-12-08T01:36:27.558Z,39.90
2022-12-08T01:38:57.829Z,37.00
2022-12-08T01:41:32.561Z,40.40
2022-12-08T01:44:07.511Z,37.80
2022-12-08T01:46:37.010Z,38.00
2022-12-08T01:49:21.111Z,39.80
2022-12-08T01:51:56.381Z,37.60
2022-12-08T01:54:28.300Z,42.90
2022-12-08T01:57:15.235Z,38.10
2022-12-08T01:59:49.425Z,39.00
2022-12-08T02:02:16.216Z,41.30
2022-12-08T02:04:42.918Z,36.60
2022-12-08T02:07:12.805Z,39.70
2022-12-08T02:09:40.961Z,35.00
2022-12-08T02:12:09.399Z,37.80
2022-12-08T02:14:36.448Z,38.10
2022-12-08T02:17:38.500Z,35.60
2022-12-08T02:20:24.731Z,35.10
2022-12-08T02:23:01.873Z,37.50
2022-12-08T02:26:13.407Z,32.10
2022-12-08T02:29:01.690Z,39.10
2022-12-08T02:31:59.096Z,37.80
2022-12-08T02:34:54.371Z,39.70
2022-12-08T02:37:55.552Z,37.40
2022-12-08T02:40:57.558Z,35.80
2022-12-08T02:43:48.395Z,35.80
2022-12-08T02:46:27.861Z,30.90
2022-12-08T02:48:55.568Z,34.20
2022-12-08T02:51:22.238Z,32.00
2022-12-08T02:53:49.145Z,33.60
2022-12-08T02:56:24.735Z,35.50
2022-12-08T02:59:25.373Z,35.30
2022-12-08T03:02:22.112Z,33.80
2022-12-08T03:05:52.432Z,37.30
2022-12-08T03:08:35.130Z,39.10
2022-12-08T03:11:24.491Z,33.60
2022-12-08T03:13:55.693Z,35.40
2022-12-08T03:16:26.862Z,34.20
2022-12-08T03:19:08.901Z,41.40
2022-12-08T03:21:38.245Z,33.30
2022-12-08T03:24:07.615Z,33.10
2022-12-08T03:26:45.641Z,33.20
2022-12-08T03:29:13.051Z,35.90
2022-12-08T03:31:46.163Z,33.10
2022-12-08T03:34:14.475Z,34.30
2022-12-08T03:36:41.200Z,33.20
2022-12-08T03:39:07.847Z,34.80
2022-12-08T03:41:34.919Z,31.60
2022-12-08T03:44:01.576Z,32.60
2022-12-08T03:48:57.189Z,32.50
2022-12-08T03:51:24.537Z,32.20
2022-12-08T03:53:51.194Z,31.50
2022-12-08T03:56:32.037Z,30.30
2022-12-08T03:58:59.557Z,32.60
2022-12-08T04:01:27.237Z,30.20
2022-12-08T04:03:54.204Z,30.90
2022-12-08T04:06:21.653Z,28.80
2022-12-08T04:08:49.756Z,33.10
2022-12-08T04:11:17.528Z,30.00
2022-12-08T04:13:45.372Z,33.60
2022-12-08T04:16:25.334Z,34.00
2022-12-08T04:18:52.098Z,37.70
2022-12-08T04:21:19.491Z,32.40
2022-12-08T04:23:47.033Z,31.40
2022-12-08T04:26:14.825Z,31.30
2022-12-08T04:28:41.707Z,38.20
2022-12-08T04:31:08.511Z,31.90
2022-12-08T04:33:35.261Z,30.00
2022-12-08T04:36:04.826Z,30.90
2022-12-08T04:38:32.106Z,32.80
2022-12-08T04:40:58.744Z,32.50
2022-12-08T04:43:25.397Z,34.70
2022-12-08T04:45:52.071Z,34.10
2022-12-08T04:48:18.746Z,30.70
2022-12-08T04:50:45.456Z,30.30
2022-12-08T04:53:13.622Z,31.00
2022-12-08T04:55:44.039Z,35.10
2022-12-08T04:58:16.887Z,34.70
2022-12-08T05:00:44.380Z,32.30
2022-12-08T05:03:11.692Z,34.00
2022-12-08T05:05:38.839Z,31.80
2022-12-08T05:08:06.458Z,28.70
2022-12-08T05:10:33.251Z,32.00
2022-12-08T05:12:59.938Z,32.00
2022-12-08T05:15:27.485Z,30.60
2022-12-08T05:17:54.481Z,34.00
2022-12-08T05:20:21.192Z,30.90
2022-12-08T05:22:47.933Z,30.00
2022-12-08T05:25:14.647Z,29.20
2022-12-08T05:27:42.390Z,27.80
2022-12-08T05:30:09.284Z,31.00
2022-12-08T05:32:35.979Z,27.20
2022-12-08T05:35:02.683Z,34.30
2022-12-08T05:37:29.347Z,32.00
2022-12-08T05:39:55.991Z,32.90
2022-12-08T05:42:24.929Z,28.20
2022-12-08T05:44:52.013Z,31.00
2022-12-08T05:47:18.962Z,29.10
2022-12-08T05:49:46.179Z,30.10
2022-12-08T05:52:12.909Z,32.00
2022-12-08T05:54:39.547Z,30.40
2022-12-08T05:57:06.245Z,31.70
2022-12-08T05:59:32.975Z,31.50
2022-12-08T06:01:59.974Z,34.00
2022-12-08T06:04:26.749Z,31.50
2022-12-08T06:06:53.443Z,28.70
2022-12-08T06:09:20.095Z,30.70
2022-12-08T06:11:46.968Z,31.40
2022-12-08T06:14:13.662Z,33.10
2022-12-08T06:16:40.528Z,29.10
2022-12-08T06:19:07.768Z,30.90
2022-12-08T06:21:34.492Z,32.80
2022-12-08T06:24:01.208Z,31.50
2022-12-08T06:26:28.297Z,36.20
2022-12-08T06:28:54.925Z,34.70
2022-12-08T06:31:24.990Z,35.30
2022-12-08T06:33:53.232Z,33.10
2022-12-08T06:36:24.062Z,35.70
2022-12-08T06:38:51.255Z,28.40
2022-12-08T06:41:18.358Z,36.70
2022-12-08T06:43:45.909Z,33.20
2022-12-08T06:46:16.871Z,31.50
2022-12-08T06:48:44.258Z,33.60
2022-12-08T06:51:18.490Z,35.50
2022-12-08T06:53:46.476Z,34.40
2022-12-08T06:56:15.191Z,32.60
2022-12-08T06:58:45.064Z,36.70
2022-12-08T07:01:15.642Z,34.00
2022-12-08T07:03:43.074Z,30.70
2022-12-08T07:06:24.211Z,35.10
2022-12-08T07:08:50.953Z,33.20
2022-12-08T07:11:21.942Z,32.30
2022-12-08T07:13:50.109Z,35.80
2022-12-08T07:16:16.864Z,31.50
2022-12-08T07:18:43.635Z,35.20
2022-12-08T07:21:14.258Z,34.50
2022-12-08T07:23:42.044Z,35.30
2022-12-08T07:26:11.115Z,32.80
2022-12-08T07:28:39.745Z,31.80
2022-12-08T07:31:08.395Z,34.20
2022-12-08T07:33:35.454Z,31.20
2022-12-08T07:36:05.009Z,30.80
2022-12-08T07:38:32.348Z,28.90
2022-12-08T07:41:00.514Z,29.10
2022-12-08T07:43:27.190Z,30.10
2022-12-08T07:45:53.963Z,28.10
2022-12-08T07:48:20.667Z,31.30
2022-12-08T07:50:47.448Z,27.40
2022-12-08T07:53:14.377Z,28.40
2022-12-08T07:55:42.750Z,29.40
2022-12-08T07:58:10.691Z,26.40
2022-12-08T08:00:37.858Z,27.20
2022-12-08T08:03:05.441Z,27.20
2022-12-08T08:05:32.163Z,26.10
2022-12-08T08:07:59.070Z,26.60
2022-12-08T08:10:25.833Z,26.80
2022-12-08T08:12:52.746Z,26.90
2022-12-08T08:15:20.507Z,26.80
2022-12-08T08:17:50.983Z,28.00
2022-12-08T08:20:19.266Z,23.70
2022-12-08T08:22:47.913Z,25.90
2022-12-08T08:25:15.881Z,25.80
2022-12-08T08:27:43.266Z,25.20
2022-12-08T08:30:18.139Z,22.80
2022-12-08T08:32:48.306Z,23.90
2022-12-08T08:35:15.567Z,22.30
2022-12-08T08:37:48.351Z,25.40
2022-12-08T08:40:17.355Z,24.50
2022-12-08T08:42:44.080Z,28.30
2022-12-08T08:45:11.003Z,29.20
2022-12-08T08:47:37.753Z,23.60
2022-12-08T08:50:05.634Z,21.80
2022-12-08T08:52:32.553Z,22.20
2022-12-08T08:54:59.220Z,19.50
2022-12-08T08:57:26.341Z,19.50
2022-12-08T08:59:53.498Z,22.00
2022-12-08T09:02:21.289Z,21.70
2022-12-08T09:04:48.152Z,22.50
2022-12-08T09:07:15.394Z,19.60
2022-12-08T09:09:42.681Z,20.60
2022-12-08T09:12:10.105Z,19.50
2022-12-08T09:14:36.858Z,21.90
2022-12-08T09:17:04.098Z,23.00
2022-12-08T09:19:31.084Z,16.90
2022-12-08T09:21:57.839Z,16.80
2022-12-08T09:24:24.558Z,16.90
2022-12-08T09:26:51.352Z,21.70
2022-12-08T09:29:18.041Z,19.80
2022-12-08T09:31:45.445Z,17.50
2022-12-08T09:34:13.411Z,18.30
2022-12-08T09:36:40.150Z,17.50
2022-12-08T09:39:07.250Z,18.20
2022-12-08T09:42:01.555Z,19.00
2022-12-08T09:44:50.157Z,17.70
2022-12-08T09:47:39.325Z,20.30
2022-12-08T09:50:12.123Z,21.80
2022-12-08T09:53:04.926Z,19.70
2022-12-08T09:55:46.537Z,22.70
2022-12-08T10:00:50.489Z,21.60
2022-12-08T10:03:18.100Z,24.00
2022-12-08T10:05:57.014Z,21.30
2022-12-08T10:08:33.268Z,25.50
2022-12-08T10:11:11.707Z,26.80
2022-12-08T10:13:58.707Z,23.70
2022-12-08T10:16:39.149Z,24.30
2022-12-08T10:19:16.826Z,21.30
2022-12-08T10:21:44.666Z,23.40
2022-12-08T10:24:22.892Z,21.20
2022-12-08T10:26:49.856Z,22.50
2022-12-08T10:29:17.033Z,20.40
2022-12-08T10:31:43.882Z,22.80
2022-12-08T10:34:23.737Z,22.40
2022-12-08T10:37:00.259Z,23.50
2022-12-08T10:39:43.133Z,27.60
2022-12-08T10:42:18.444Z,20.50
2022-12-08T10:44:55.125Z,19.60
2022-12-08T10:47:25.729Z,18.30
2022-12-08T10:50:27.834Z,21.10
2022-12-08T10:53:12.460Z,22.10
2022-12-08T10:55:46.355Z,18.40
2022-12-08T10:58:36.549Z,20.30
2022-12-08T11:01:26.356Z,20.60
2022-12-08T11:04:02.826Z,21.60
2022-12-08T11:06:40.465Z,23.10
2022-12-08T11:09:30.061Z,23.60
2022-12-08T11:12:00.226Z,21.20
2022-12-08T11:14:30.864Z,20.20
2022-12-08T11:17:11.443Z,24.10
2022-12-08T11:20:06.037Z,21.70
2022-12-08T11:22:39.137Z,20.90
2022-12-08T11:25:14.404Z,22.10
2022-12-08T11:27:45.341Z,22.80
2022-12-08T11:30:17.353Z,27.80
2022-12-08T11:32:48.841Z,24.90
2022-12-08T11:35:55.407Z,23.20
2022-12-08T11:38:25.200Z,22.70
2022-12-08T11:40:58.490Z,26.30
2022-12-08T11:43:45.626Z,24.90
2022-12-08T11:46:20.488Z,24.60
2022-12-08T11:49:02.725Z,22.70
2022-12-08T11:52:04.636Z,24.90
2022-12-08T11:54:42.104Z,27.60
2022-12-08T11:57:15.820Z,23.00
2022-12-08T11:59:46.215Z,27.40
2022-12-08T12:02:23.969Z,26.50
2022-12-08T12:05:04.920Z,24.50
2022-12-08T12:08:08.752Z,24.40
2022-12-08T12:10:50.306Z,26.80
2022-12-08T12:13:35.334Z,19.70
2022-12-08T12:16:54.821Z,20.80
2022-12-08T12:19:23.201Z,23.20
2022-12-08T12:21:55.381Z,22.70
2022-12-08T12:24:35.431Z,23.20
2022-12-08T12:27:14.731Z,25.60
2022-12-08T12:30:05.253Z,22.50
2022-12-08T12:32:45.105Z,21.00
2022-12-08T12:35:27.144Z,22.50
2022-12-08T12:38:01.918Z,22.50
2022-12-08T12:40:39.223Z,21.20
2022-12-08T12:43:05.807Z,19.50
2022-12-08T12:45:34.054Z,23.80
2022-12-08T12:48:00.793Z,21.90
2022-12-08T12:50:51.545Z,25.90
2022-12-08T12:53:18.401Z,23.80
2022-12-08T12:55:44.998Z,24.20
2022-12-08T12:58:41.935Z,27.50
2022-12-08T13:01:14.640Z,25.60
2022-12-08T13:03:46.637Z,31.00
2022-12-08T13:06:22.431Z,23.60
2022-12-08T13:08:52.288Z,25.50
2022-12-08T13:11:20.333Z,20.70
2022-12-08T13:14:03.110Z,21.50
2022-12-08T13:16:39.021Z,20.80
2022-12-08T13:19:14.238Z,21.20
2022-12-08T13:21:41.116Z,24.20
2022-12-08T13:24:13.705Z,22.90
2022-12-08T13:26:45.741Z,24.30
2022-12-08T13:29:25.922Z,22.30
2022-12-08T13:32:00.176Z,21.40
2022-12-08T13:34:54.854Z,20.50
2022-12-08T13:37:53.966Z,24.80
2022-12-08T13:40:25.744Z,22.90
2022-12-08T13:43:18.188Z,20.30
2022-12-08T13:46:52.547Z,22.50
2022-12-08T13:50:30.718Z,22.60
2022-12-08T13:53:34.956Z,22.50
2022-12-08T13:55:26.863Z,23.20
2022-12-08T13:57:33.971Z,22.70
2022-12-08T14:00:16.637Z,21.60
2022-12-08T14:02:48.535Z,24.60
2022-12-08T14:05:20.425Z,26.40
2022-12-08T14:07:54.731Z,21.50
2022-12-08T14:10:28.633Z,24.00
2022-12-08T14:13:01.128Z,21.70
2022-12-08T14:15:32.550Z,24.30
2022-12-08T14:18:02.682Z,22.20
2022-12-08T14:20:33.843Z,22.10
2022-12-08T14:23:09.377Z,22.40
2022-12-08T14:25:38.166Z,22.30
2022-12-08T14:28:05.074Z,21.80
2022-12-08T14:30:33.048Z,19.30
2022-12-08T14:33:03.653Z,24.90
2022-12-08T14:35:37.163Z,26.30
2022-12-08T14:38:16.849Z,22.00
2022-12-08T14:41:00.323Z,24.00
2022-12-08T14:43:29.111Z,25.50
2022-12-08T14:46:05.524Z,21.10
2022-12-08T14:48:37.798Z,22.70
2022-12-08T14:51:20.347Z,23.90
2022-12-08T14:53:53.320Z,21.80
2022-12-08T14:56:51.920Z,21.50
2022-12-08T14:59:30.666Z,23.00
2022-12-08T15:02:15.780Z,24.00
2022-12-08T15:04:45.569Z,22.00
2022-12-08T15:07:21.870Z,23.80
2022-12-08T15:10:13.374Z,22.00
2022-12-08T15:12:56.138Z,22.50
2022-12-08T15:15:23.361Z,21.70
2022-12-08T15:18:00.529Z,24.90
2022-12-08T15:20:44.535Z,23.60
2022-12-08T15:23:21.021Z,18.10
2022-12-08T15:25:49.174Z,17.90
2022-12-08T15:28:26.655Z,25.50
2022-12-08T15:30:57.074Z,22.50
2022-12-08T15:33:23.883Z,22.80
2022-12-08T15:35:51.382Z,21.00
2022-12-08T15:38:28.249Z,24.90
2022-12-08T15:40:57.996Z,25.30
2022-12-08T15:43:24.785Z,25.40
2022-12-08T15:45:58.926Z,20.10
2022-12-08T15:48:29.532Z,23.30
2022-12-08T15:50:56.714Z,23.30
2022-12-08T15:53:23.565Z,24.70
2022-12-08T15:56:18.978Z,23.90
2022-12-08T15:58:54.636Z,23.00
2022-12-08T16:01:23.129Z,21.40
2022-12-08T16:09:38.868Z,23.30
2022-12-08T16:13:26.668Z,23.20
2022-12-08T16:15:51.216Z,24.10
2022-12-08T16:18:16.786Z,25.70
2022-12-08T16:21:08.059Z,23.50
2022-12-08T16:23:45.985Z,22.60
2022-12-08T16:26:28.927Z,25.20
2022-12-08T16:29:04.630Z,23.40
2022-12-08T16:31:31.431Z,25.80
2022-12-08T16:33:58.161Z,21.30
2022-12-08T16:36:24.889Z,22.90
2022-12-08T16:38:51.640Z,24.60
2022-12-08T16:41:36.938Z,25.30
2022-12-08T16:44:05.776Z,24.30
2022-12-08T16:46:32.990Z,21.90
2022-12-08T16:48:59.835Z,23.70
2022-12-08T16:51:27.555Z,21.00
2022-12-08T16:53:56.275Z,26.60
2022-12-08T16:56:28.787Z,22.20
2022-12-08T16:58:55.708Z,27.10
2022-12-08T17:01:23.080Z,29.20
2022-12-08T17:04:14.201Z,26.10
2022-12-08T17:06:36.570Z,23.80
2022-12-08T17:09:03.886Z,21.10
2022-12-08T17:11:34.826Z,26.10
2022-12-08T17:14:04.384Z,21.40
2022-12-08T17:16:31.152Z,26.40
2022-12-08T17:18:58.128Z,22.70
2022-12-08T17:21:25.229Z,23.90
2022-12-08T17:23:52.097Z,23.10
2022-12-08T17:26:18.810Z,23.60
2022-12-08T17:29:00.618Z,32.80
2022-12-08T17:31:31.317Z,29.20
2022-12-08T17:34:03.596Z,24.20
2022-12-08T17:36:31.148Z,37.80
2022-12-08T17:38:59.078Z,25.00
2022-12-08T17:41:26.047Z,26.90
2022-12-08T17:43:52.732Z,25.00
2022-12-08T17:46:21.208Z,28.20
2022-12-08T17:48:48.354Z,30.80
2022-12-08T17:51:15.899Z,30.60
2022-12-08T17:53:43.333Z,27.10
2022-12-08T17:56:19.952Z,30.80
2022-12-08T17:58:52.619Z,28.80
2022-12-08T18:01:22.765Z,28.00
2022-12-08T18:03:50.355Z,27.20
2022-12-08T18:06:17.114Z,23.20
2022-12-08T18:08:44.297Z,23.10
2022-12-08T18:11:15.689Z,23.10
2022-12-08T18:16:09.742Z,22.50
2022-12-08T18:18:36.506Z,26.40
2022-12-08T18:21:03.742Z,24.10
2022-12-08T18:23:30.742Z,30.40
2022-12-08T18:25:58.029Z,46.30
2022-12-08T18:28:24.949Z,34.60
2022-12-08T18:30:51.740Z,23.80
2022-12-08T18:33:18.517Z,25.70
2022-12-08T18:35:45.202Z,23.00
2022-12-08T18:38:11.907Z,26.00
2022-12-08T18:40:38.751Z,26.80
2022-12-08T18:43:05.406Z,30.10
2022-12-08T18:45:36.032Z,24.70
2022-12-08T18:48:03.063Z,29.00
2022-12-08T18:50:29.933Z,30.20
2022-12-08T18:52:56.700Z,25.90
2022-12-08T18:55:23.449Z,30.10
2022-12-08T18:57:50.340Z,26.10
2022-12-08T19:00:18.879Z,25.70
2022-12-08T19:02:45.789Z,27.40
2022-12-08T19:05:13.686Z,28.10
2022-12-08T19:07:41.870Z,25.40
2022-12-08T19:10:09.953Z,26.50
2022-12-08T19:12:36.862Z,24.20
2022-12-08T19:15:04.659Z,24.50
2022-12-08T19:17:31.951Z,23.10
2022-12-08T19:19:58.711Z,26.70
2022-12-08T19:22:25.511Z,23.10
2022-12-08T19:24:52.281Z,25.50
2022-12-08T19:27:19.130Z,21.20
2022-12-08T19:29:46.156Z,25.20
2022-12-08T19:32:12.809Z,23.60
2022-12-08T19:34:39.690Z,23.10
2022-12-08T19:37:08.208Z,24.80
2022-12-08T19:39:53.882Z,24.00
2022-12-08T19:42:39.157Z,23.60
2022-12-08T19:45:20.616Z,22.30
2022-12-08T19:47:48.309Z,22.20
2022-12-08T19:50:34.818Z,26.70
2022-12-08T19:53:13.163Z,23.50
2022-12-08T19:55:42.465Z,30.50
2022-12-08T19:58:09.858Z,22.30
2022-12-08T20:00:39.077Z,21.70
2022-12-08T20:03:06.256Z,25.20
2022-12-08T20:05:35.809Z,24.50
2022-12-08T20:08:02.732Z,23.60
2022-12-08T20:10:35.470Z,21.90
2022-12-08T20:13:32.551Z,24.50
2022-12-08T20:15:59.309Z,22.60
2022-12-08T20:18:27.892Z,22.80
2022-12-08T20:20:54.833Z,20.40
2022-12-08T20:23:21.652Z,20.40
2022-12-08T20:25:48.361Z,20.70
2022-12-08T20:28:15.119Z,25.80
2022-12-08T20:30:43.296Z,21.40
2022-12-08T20:33:13.157Z,23.40
2022-12-08T20:35:40.419Z,24.00
2022-12-08T20:38:07.706Z,23.50
2022-12-08T20:40:34.414Z,26.40
2022-12-08T20:43:01.153Z,25.50
2022-12-08T20:45:27.837Z,25.00
2022-12-08T20:47:54.583Z,27.70
2022-12-08T20:50:21.606Z,21.70
2022-12-08T20:52:48.277Z,24.20
2022-12-08T20:55:15.101Z,20.20
2022-12-08T20:57:41.818Z,21.40
2022-12-08T21:00:10.478Z,26.10
2022-12-08T21:02:41.670Z,23.70
2022-12-08T21:05:12.189Z,22.90
2022-12-08T21:07:39.022Z,26.70
2022-12-08T21:10:07.305Z,24.30
2022-12-08T21:12:34.365Z,23.50
2022-12-08T21:15:01.560Z,22.70
2022-12-08T21:17:28.574Z,25.30
2022-12-08T21:19:55.479Z,23.40
2022-12-08T21:22:22.354Z,24.10
2022-12-08T21:24:49.333Z,27.50
2022-12-08T21:27:16.162Z,24.50
2022-12-08T21:29:42.898Z,32.50
2022-12-08T21:32:09.845Z,34.30
2022-12-08T21:34:36.735Z,30.70
2022-12-08T21:37:03.500Z,28.30
2022-12-08T21:39:30.469Z,29.60
2022-12-08T21:42:16.239Z,27.80
2022-12-08T21:44:43.244Z,31.40
2022-12-08T21:47:10.086Z,32.60
2022-12-08T21:49:37.056Z,31.90
2022-12-08T21:52:04.008Z,33.00
2022-12-08T21:54:30.901Z,33.00
2022-12-08T21:56:57.747Z,38.80
2022-12-08T21:59:24.495Z,33.60
2022-12-08T22:01:51.492Z,36.70
2022-12-08T22:04:20.842Z,36.50
2022-12-08T22:06:48.084Z,36.90
2022-12-08T22:09:15.234Z,37.70
2022-12-08T22:11:43.289Z,35.30
2022-12-08T22:14:14.383Z,34.50
2022-12-08T22:16:43.226Z,35.50
2022-12-08T22:19:10.217Z,30.80
2022-12-08T22:21:37.764Z,37.50
2022-12-08T22:24:05.298Z,36.80
2022-12-08T22:26:32.243Z,36.80
2022-12-08T22:28:59.721Z,40.30
2022-12-08T22:31:27.317Z,33.30
2022-12-08T22:33:54.464Z,34.80
2022-12-08T22:36:24.158Z,39.40
2022-12-08T22:38:52.388Z,38.10
2022-12-08T22:41:20.482Z,36.60
2022-12-08T22:43:48.280Z,36.60
2022-12-08T22:46:19.937Z,39.50
2022-12-08T22:48:47.410Z,37.90
2022-12-08T22:51:15.105Z,42.10
2022-12-08T22:53:43.430Z,34.80
2022-12-08T22:56:12.965Z,38.40
2022-12-08T22:58:41.319Z,36.80
2022-12-08T23:01:08.503Z,43.30
2022-12-08T23:03:35.387Z,36.10
2022-12-08T23:06:02.378Z,41.30
2022-12-08T23:08:29.353Z,38.90
2022-12-08T23:10:57.104Z,40.10
2022-12-08T23:13:23.891Z,39.30
2022-12-08T23:15:50.643Z,39.90
2022-12-08T23:18:18.547Z,41.90
2022-12-08T23:20:46.532Z,38.50
2022-12-08T23:23:13.893Z,39.80
2022-12-08T23:25:41.736Z,42.70
2022-12-08T23:28:09.304Z,37.80
2022-12-08T23:30:38.880Z,38.50
2022-12-08T23:33:05.683Z,34.60
2022-12-08T23:35:32.431Z,41.30
2022-12-08T23:37:59.218Z,40.50
2022-12-08T23:40:26.073Z,37.40
2022-12-08T23:42:53.041Z,32.50
2022-12-08T23:45:19.737Z,34.90
2022-12-08T23:47:46.575Z,30.80
2022-12-08T23:50:13.265Z,31.80
2022-12-08T23:52:40.257Z,29.50
2022-12-08T23:55:07.860Z,29.90
2022-12-08T23:57:35.641Z,30.30
